Flight Track Log - Related Links

Times and Time Zones

All times are in EDT time to prevent confusion due to time zone crossing. See the MTN8955 flight status page for this flight to view local times or setup timezone preferences in your user account.

Time Position Orientation Groundspeed Altitude Reporting Facility
EDT Latitude Longitude Course Direction KTS MPH feet Rate Location/Type
Sat 09:57:25 AM 39.2167 -76.6667 180° South 119 137 800  Level Potomac TRACON
Sat 09:58:25 AM 39.2500 -76.6500 21° North 142 163 1,400 700 Climbing Potomac TRACON
Sat 09:59:25 AM 39.2833 -76.6333 21° North 144 166 2,200 750 Climbing Potomac TRACON
Sat 10:00:25 AM 39.2833 -76.6000 90° East 131 151 2,900 700 Climbing Potomac TRACON
Sat 10:01:25 AM 39.2500 -76.5667 142° Southeast 120 138 3,600 650 Climbing Potomac TRACON
Sat 10:02:00 AM 39.0804 -76.4667 180° South  Level FlightAware Approximate
Sat 10:02:25 AM 39.2167 -76.5500 159° South 126 145 4,200  Level Potomac TRACON
Sat 10:03:25 AM 39.2000 -76.5167 123° Southeast 126 145 4,800 397 Climbing Potomac TRACON
Sat 10:04:26 AM 39.1667 -76.4833 142° Southeast 144 166 5,000 99 Climbing Potomac TRACON
Sat 10:05:26 AM 39.1333 -76.4500 142° Southeast 159 183 5,000  Level Potomac TRACON
Sat 10:06:26 AM 39.1000 -76.4167 142° Southeast 162 186 5,000  Level Potomac TRACON
Sat 10:07:26 AM 39.0667 -76.3667 131° Southeast 166 191 5,000  Level Potomac TRACON
Sat 10:08:26 AM 39.0333 -76.3333 142° Southeast 165 190 5,000  Level Potomac TRACON
Sat 10:09:26 AM 39.0000 -76.2833 131° Southeast 161 185 5,000  Level Potomac TRACON
Sat 10:10:27 AM 38.9667 -76.2500 142° Southeast 161 185 5,000 55 Level Potomac TRACON
Sat 10:11:15 AM 38.9431 -76.2269 143° Southeast 162 186 5,100 58 Climbing Washington Center
Sat 10:12:10 AM 38.9139 -76.1892 135° Southeast 165 190 5,100  Level Washington Center
Sat 10:13:10 AM 38.8786 -76.1489 138° Southeast 166 191 5,100  Level Washington Center
Sat 10:14:12 AM 38.8433 -76.1061 137° Southeast 166 191 5,100  Level Washington Center
Sat 10:15:13 AM 38.8081 -76.0658 138° Southeast 164 189 5,100  Level Washington Center
Sat 10:16:14 AM 38.7750 -76.0256 136° Southeast 164 189 5,100  Level Washington Center
Sat 10:17:14 AM 38.7439 -75.9883 137° Southeast 163 188 5,100  Level Washington Center
Sat 10:18:18 AM 38.7044 -75.9428 138° Southeast 163 188 5,100 -202 Level Washington Center
Sat 10:19:13 AM 38.6731 -75.9081 139° Southeast 166 191 4,700 -486 Descending Washington Center
Sat 10:20:09 AM 38.6419 -75.8656 133° Southeast 180 207 4,200 -569 Descending Washington Center
Sat 10:21:09 AM 38.6025 -75.8200 138° Southeast 190 219 3,600 -545 Descending Washington Center
Sat 10:22:10 AM 38.5650 -75.7775 138° Southeast 182 209 3,100 -344 Descending Washington Center
Sat 10:23:11 AM 38.5317 -75.7378 137° Southeast 166 191 2,900 -344 Descending Washington Center
Sat 10:24:12 AM 38.4964 -75.6978 138° Southeast 163 188 2,400 -397 Descending Washington Center
Sat 10:25:12 AM 38.4631 -75.6581 137° Southeast 165 190 2,100 -393 Descending Washington Center
Sat 10:26:14 AM 38.4317 -75.6183 135° Southeast 157 181 1,600 -246 Descending Washington Center
Sat 10:27:14 AM 38.3961 -75.5783 139° Southeast 163 188 1,600  Level Washington Center

Login

Don't have an account? Register now (free) for customized features, flight alerts, and more!